Time;durP1;ratioP1;P1;durP2;ratioP2;P2;SDS_P1;SDS_P2;PMS_P1;PMS_P2;Temp;Humidity;BMP_temperature;BMP_pressure;BME280_temperature;BME280_humidity;BME280_pressure;Samples;Min_cycle;Max_cycle;Signal;HPM_P1;HPM_P2
2021/09/26 00:00:58;;;;;;;0.82;0.80;;;14.70;84.50;;;;;;5098406;28;20032;-86
2021/09/26 00:03:24;;;;;;;1.08;0.80;;;14.70;84.50;;;;;;5084517;28;20429;-86
2021/09/26 00:05:50;;;;;;;0.77;0.60;;;14.70;84.40;;;;;;5098659;28;20028;-87
2021/09/26 00:08:15;;;;;;;1.75;0.90;;;14.60;84.40;;;;;;5098515;28;20087;-87
2021/09/26 00:10:41;;;;;;;1.10;0.80;;;14.60;84.40;;;;;;5098355;28;20028;-87
2021/09/26 00:13:07;;;;;;;1.27;0.70;;;14.60;84.30;;;;;;5079958;28;20048;-86
2021/09/26 00:15:33;;;;;;;1.25;0.60;;;14.70;84.30;;;;;;5096595;28;20090;-87
2021/09/26 00:18:00;;;;;;;0.93;0.85;;;14.70;84.20;;;;;;5081060;28;20077;-86
2021/09/26 00:20:27;;;;;;;0.95;0.75;;;14.60;84.10;;;;;;5082164;28;20038;-86
2021/09/26 00:22:53;;;;;;;0.60;0.60;;;14.70;84.20;;;;;;5078524;28;20406;-86
2021/09/26 00:25:20;;;;;;;2.13;0.70;;;14.70;84.10;;;;;;5063901;28;20618;-86
2021/09/26 00:27:46;;;;;;;0.70;0.70;;;14.60;84.00;;;;;;5079581;28;20031;-86
2021/09/26 00:30:16;;;;;;;0.95;0.60;;;14.60;84.00;;;;;;5063343;28;20024;-86
2021/09/26 00:32:44;;;;;;;2.67;0.65;;;14.60;83.90;;;;;;5097947;28;20069;-86
2021/09/26 00:35:11;;;;;;;0.75;0.63;;;14.70;83.90;;;;;;5086878;28;20046;-86
2021/09/26 00:37:38;;;;;;;1.00;0.88;;;14.60;83.80;;;;;;5084714;28;20028;-86
2021/09/26 00:40:06;;;;;;;0.57;0.57;;;14.60;83.70;;;;;;5053578;28;20042;-85
2021/09/26 00:42:32;;;;;;;1.38;0.63;;;14.60;83.70;;;;;;5095871;28;20509;-85
2021/09/26 00:44:58;;;;;;;0.80;0.75;;;14.60;83.60;;;;;;5062480;28;20035;-87
2021/09/26 00:47:25;;;;;;;0.55;0.40;;;14.70;83.70;;;;;;5095658;28;20047;-85
2021/09/26 00:49:52;;;;;;;1.90;0.70;;;14.60;83.60;;;;;;5080157;28;20032;-87
2021/09/26 00:52:20;;;;;;;1.10;0.45;;;14.60;83.60;;;;;;5079979;28;20038;-87
2021/09/26 00:54:47;;;;;;;0.55;0.30;;;14.60;83.60;;;;;;5066100;28;20035;-86
2021/09/26 00:57:13;;;;;;;1.05;0.40;;;14.60;83.60;;;;;;5083575;28;20059;-87
2021/09/26 00:59:39;;;;;;;0.50;0.50;;;14.60;83.60;;;;;;5078833;28;20504;-86
2021/09/26 01:02:05;;;;;;;0.93;0.60;;;14.60;83.50;;;;;;5096924;28;20028;-86
2021/09/26 01:04:32;;;;;;;0.60;0.60;;;14.60;83.50;;;;;;5097512;28;20133;-85
2021/09/26 01:07:09;;;;;;;0.75;0.65;;;14.70;83.60;;;;;;5096852;28;20028;-85
2021/09/26 01:10:03;;;;;;;3.08;0.60;;;14.60;83.60;;;;;;5097668;28;20031;-86
2021/09/26 01:12:38;;;;;;;0.57;0.50;;;14.60;83.60;;;;;;5079961;28;20051;-85
2021/09/26 01:15:07;;;;;;;0.60;0.60;;;14.60;83.60;;;;;;5066763;28;20032;-85
2021/09/26 01:17:42;;;;;;;0.50;0.50;;;14.60;83.60;;;;;;5097116;28;20081;-88
2021/09/26 01:20:20;;;;;;;;;;;14.60;83.60;;;;;;5098002;28;20031;-84
2021/09/26 01:23:01;;;;;;;1.58;0.57;;;14.60;83.60;;;;;;5097926;28;19970;-85
2021/09/26 01:25:48;;;;;;;1.55;0.40;;;14.60;83.50;;;;;;5065127;28;20078;-87
2021/09/26 01:28:50;;;;;;;0.73;0.73;;;14.60;83.60;;;;;;5064971;28;20034;-87
2021/09/26 01:31:21;;;;;;;1.38;0.68;;;14.60;83.50;;;;;;5103924;28;20036;-85
2021/09/26 01:33:54;;;;;;;1.85;0.43;;;14.60;83.40;;;;;;5068934;28;20066;-85
2021/09/26 01:36:42;;;;;;;2.17;0.43;;;14.60;83.50;;;;;;5064466;28;20436;-86
2021/09/26 01:39:16;;;;;;;0.40;0.40;;;14.50;83.40;;;;;;5078653;28;20038;-86
2021/09/26 01:42:06;;;;;;;0.50;0.40;;;14.60;83.30;;;;;;5066356;28;20502;-86
2021/09/26 01:44:54;;;;;;;1.38;0.43;;;14.60;83.30;;;;;;5083366;28;20080;-85
2021/09/26 01:47:29;;;;;;;2.28;0.50;;;14.60;83.20;;;;;;5096034;28;20043;-86
2021/09/26 01:50:00;;;;;;;0.40;0.40;;;14.60;83.10;;;;;;5076295;28;20428;-86
2021/09/26 01:52:30;;;;;;;0.70;0.45;;;14.50;82.90;;;;;;5094672;28;20078;-86
2021/09/26 01:54:58;;;;;;;0.45;0.32;;;14.60;82.80;;;;;;5078615;28;20047;-87
2021/09/26 01:57:26;;;;;;;0.80;0.50;;;14.60;82.70;;;;;;5049251;28;20047;-86
2021/09/26 01:59:56;;;;;;;1.40;0.40;;;14.60;82.60;;;;;;5078962;28;20112;-85
2021/09/26 02:02:25;;;;;;;0.50;0.30;;;14.60;82.60;;;;;;5096191;28;20031;-85
2021/09/26 02:04:59;;;;;;;0.88;0.40;;;14.60;82.50;;;;;;5078390;28;20027;-88
2021/09/26 02:07:31;;;;;;;0.30;0.30;;;14.60;82.50;;;;;;5095114;28;20020;-86
2021/09/26 02:09:59;;;;;;;0.40;0.40;;;14.60;83.00;;;;;;5078034;28;20020;-86
2021/09/26 02:12:26;;;;;;;1.23;0.40;;;14.60;82.40;;;;;;5095288;28;20024;-85
2021/09/26 02:14:54;;;;;;;0.65;0.35;;;14.60;82.40;;;;;;5095221;28;20054;-85
2021/09/26 02:17:22;;;;;;;0.40;0.40;;;14.60;82.30;;;;;;5095033;28;20035;-86
2021/09/26 02:19:50;;;;;;;1.95;0.30;;;14.50;82.30;;;;;;5099784;28;20087;-85
2021/09/26 02:22:17;;;;;;;0.70;0.30;;;14.50;82.10;;;;;;5085886;28;20474;-85
2021/09/26 02:24:44;;;;;;;0.40;0.28;;;14.50;82.10;;;;;;5114150;28;20108;-87
2021/09/26 02:27:11;;;;;;;1.55;0.25;;;14.60;82.20;;;;;;5102619;28;20574;-86
2021/09/26 02:29:36;;;;;;;0.93;0.40;;;14.50;82.30;;;;;;5051593;28;20028;-86
2021/09/26 02:32:04;;;;;;;1.50;0.40;;;14.60;82.20;;;;;;5078405;28;20393;-86
2021/09/26 02:34:30;;;;;;;0.50;0.38;;;14.50;82.20;;;;;;5077828;28;20126;-86
2021/09/26 02:36:56;;;;;;;0.47;0.30;;;14.50;82.20;;;;;;5096040;28;20119;-86
2021/09/26 02:39:22;;;;;;;0.40;0.40;;;14.50;82.20;;;;;;5096633;28;20034;-87
2021/09/26 02:41:57;;;;;;;3.30;0.50;;;14.50;82.20;;;;;;5078020;28;20031;-88
2021/09/26 02:44:26;;;;;;;1.50;0.40;;;14.50;82.30;;;;;;5051991;28;20027;-87
2021/09/26 02:46:58;;;;;;;0.68;0.60;;;14.50;82.40;;;;;;5081400;28;20528;-86
2021/09/26 02:49:25;;;;;;;1.33;0.50;;;14.50;82.40;;;;;;5066160;28;20028;-85
2021/09/26 02:51:52;;;;;;;1.45;0.50;;;14.50;82.50;;;;;;5082383;28;20055;-86
2021/09/26 02:54:20;;;;;;;0.90;0.50;;;14.50;82.50;;;;;;5085991;28;20028;-87
2021/09/26 02:56:46;;;;;;;1.15;0.60;;;14.50;82.60;;;;;;5066462;28;20043;-87
2021/09/26 02:59:12;;;;;;;0.30;0.30;;;14.50;82.60;;;;;;5082082;28;20036;-87
2021/09/26 03:01:51;;;;;;;1.52;0.60;;;14.50;82.60;;;;;;5082261;28;20050;-86
2021/09/26 03:04:18;;;;;;;2.63;0.52;;;14.50;82.90;;;;;;5070517;28;20024;-87
2021/09/26 03:06:44;;;;;;;1.02;0.52;;;14.50;82.70;;;;;;5081369;28;20795;-86
2021/09/26 03:09:10;;;;;;;0.73;0.47;;;14.50;82.80;;;;;;5082303;28;20032;-87
2021/09/26 03:11:36;;;;;;;1.45;0.45;;;14.50;82.80;;;;;;5080263;28;20029;-87
2021/09/26 03:14:02;;;;;;;1.48;0.60;;;14.50;82.80;;;;;;5098541;28;20063;-87
2021/09/26 03:16:28;;;;;;;1.17;0.40;;;14.50;82.90;;;;;;5066767;28;20059;-85
2021/09/26 03:18:54;;;;;;;1.40;0.50;;;14.50;83.00;;;;;;5095331;28;20040;-86
2021/09/26 03:21:20;;;;;;;0.85;0.60;;;14.50;83.00;;;;;;5095062;28;20452;-86
2021/09/26 03:23:46;;;;;;;0.55;0.30;;;14.50;83.10;;;;;;5104739;28;20470;-85
2021/09/26 03:26:12;;;;;;;0.38;0.38;;;14.50;83.10;;;;;;5085548;28;20027;-85
2021/09/26 03:28:38;;;;;;;0.82;0.50;;;14.50;83.00;;;;;;5099002;28;20069;-86
2021/09/26 03:31:04;;;;;;;1.75;0.50;;;14.50;83.10;;;;;;5099707;28;20032;-85
2021/09/26 03:33:30;;;;;;;1.25;0.35;;;14.50;83.10;;;;;;5080669;28;20400;-86
2021/09/26 03:35:56;;;;;;;0.50;0.45;;;14.50;83.10;;;;;;5062560;28;20078;-87
2021/09/26 03:38:22;;;;;;;0.98;0.52;;;14.50;83.10;;;;;;5079996;28;20024;-86
2021/09/26 03:40:48;;;;;;;0.63;0.40;;;14.50;83.10;;;;;;5080251;28;20459;-87
2021/09/26 03:43:14;;;;;;;1.00;0.40;;;14.50;83.10;;;;;;5082550;28;20042;-87
2021/09/26 03:45:40;;;;;;;0.52;0.32;;;14.50;83.10;;;;;;5079498;28;20127;-86
2021/09/26 03:48:07;;;;;;;0.35;0.20;;;14.50;83.10;;;;;;5080196;28;20053;-87
2021/09/26 03:50:34;;;;;;;1.17;0.38;;;14.50;83.00;;;;;;5083795;28;20484;-86
2021/09/26 03:53:00;;;;;;;0.45;0.32;;;14.50;83.10;;;;;;5097691;28;20075;-86
2021/09/26 03:55:26;;;;;;;1.52;0.38;;;14.50;83.60;;;;;;5081835;28;20179;-87
2021/09/26 03:57:52;;;;;;;0.30;0.30;;;14.50;83.10;;;;;;5086506;28;20405;-87
2021/09/26 04:00:19;;;;;;;0.80;0.40;;;14.50;83.10;;;;;;5085510;28;20119;-87
2021/09/26 04:02:45;;;;;;;2.38;0.50;;;14.50;83.10;;;;;;5098066;28;20043;-87
2021/09/26 04:05:11;;;;;;;0.47;0.40;;;14.50;83.10;;;;;;5084967;28;20027;-87
2021/09/26 04:07:37;;;;;;;0.98;0.30;;;14.50;83.10;;;;;;5055766;28;20032;-86
2021/09/26 04:10:06;;;;;;;4.18;0.50;;;14.40;83.20;;;;;;5080872;28;20024;-87
2021/09/26 04:12:32;;;;;;;2.95;0.50;;;14.40;83.20;;;;;;5080694;28;20059;-86
2021/09/26 04:14:58;;;;;;;0.60;0.50;;;14.40;83.30;;;;;;5092635;28;20040;-86
2021/09/26 04:17:24;;;;;;;1.65;0.52;;;14.40;83.30;;;;;;5106070;28;20049;-87
2021/09/26 04:19:50;;;;;;;1.13;0.50;;;14.40;83.30;;;;;;5080689;28;20066;-88
2021/09/26 04:22:16;;;;;;;1.85;0.50;;;14.40;83.20;;;;;;5097429;28;20032;-89
2021/09/26 04:24:41;;;;;;;1.52;0.47;;;14.40;83.10;;;;;;5080506;28;20109;-89
2021/09/26 04:27:07;;;;;;;1.00;0.70;;;14.40;83.10;;;;;;5080573;28;20176;-89
2021/09/26 04:29:33;;;;;;;0.93;0.50;;;14.40;83.10;;;;;;5080943;28;20035;-88
2021/09/26 04:31:59;;;;;;;1.17;0.60;;;14.40;83.60;;;;;;5079563;28;20039;-88
2021/09/26 04:34:28;;;;;;;2.55;0.90;;;14.40;83.00;;;;;;5096928;28;20068;-87
2021/09/26 04:36:57;;;;;;;1.48;0.60;;;14.40;82.90;;;;;;5062342;28;20064;-88
2021/09/26 04:39:23;;;;;;;0.80;0.57;;;14.40;82.90;;;;;;5097836;28;20115;-88
2021/09/26 04:41:50;;;;;;;0.90;0.50;;;14.40;83.50;;;;;;5066957;28;20481;-88
2021/09/26 04:44:16;;;;;;;1.33;0.50;;;14.40;82.90;;;;;;5062808;28;20035;-88
2021/09/26 04:46:42;;;;;;;1.40;0.60;;;14.40;83.10;;;;;;5097425;28;20028;-89
2021/09/26 04:49:07;;;;;;;0.63;0.55;;;14.40;83.00;;;;;;5062288;28;20038;-89
2021/09/26 04:51:33;;;;;;;2.05;0.77;;;14.40;83.00;;;;;;5061489;28;20039;-88
2021/09/26 04:53:59;;;;;;;0.68;0.60;;;14.40;83.00;;;;;;5080536;28;20031;-88
2021/09/26 04:56:25;;;;;;;1.42;0.40;;;14.40;82.90;;;;;;5084520;28;20039;-87
2021/09/26 04:58:51;;;;;;;1.10;0.50;;;14.40;82.90;;;;;;5079896;28;20061;-87
2021/09/26 05:01:17;;;;;;;0.65;0.65;;;14.40;82.90;;;;;;5077625;28;20046;-87
2021/09/26 05:03:43;;;;;;;0.90;0.70;;;14.50;82.90;;;;;;5063228;28;20027;-87
2021/09/26 05:06:09;;;;;;;0.47;0.40;;;14.40;82.80;;;;;;5072409;28;20028;-88
2021/09/26 05:08:35;;;;;;;0.68;0.50;;;14.50;82.80;;;;;;5110578;28;20031;-87
2021/09/26 05:11:01;;;;;;;0.88;0.60;;;14.50;82.80;;;;;;5103305;28;20086;-86
2021/09/26 05:13:27;;;;;;;0.57;0.50;;;14.50;82.70;;;;;;5099880;28;20036;-88
2021/09/26 05:15:53;;;;;;;0.47;0.47;;;14.50;82.70;;;;;;5096834;28;20052;-88
2021/09/26 05:18:19;;;;;;;1.73;0.60;;;14.50;82.80;;;;;;5084265;28;20032;-88
2021/09/26 05:20:45;;;;;;;2.28;0.50;;;14.50;82.80;;;;;;5096467;28;20047;-88
2021/09/26 05:23:11;;;;;;;1.00;0.50;;;14.50;82.80;;;;;;5083865;28;20038;-89
2021/09/26 05:25:37;;;;;;;2.03;0.45;;;14.40;82.70;;;;;;5079406;28;20028;-87
2021/09/26 05:28:03;;;;;;;0.50;0.50;;;14.50;82.70;;;;;;5097514;28;20456;-88
2021/09/26 05:30:33;;;;;;;0.60;0.60;;;14.50;82.80;;;;;;5078879;28;20055;-87
2021/09/26 05:32:59;;;;;;;0.80;0.60;;;14.50;82.90;;;;;;5078275;28;20084;-88
2021/09/26 05:35:26;;;;;;;1.08;0.60;;;14.50;82.90;;;;;;5076100;28;20063;-86
2021/09/26 05:37:52;;;;;;;1.20;0.65;;;14.50;82.90;;;;;;5079717;28;20064;-86
2021/09/26 05:40:21;;;;;;;0.70;0.70;;;14.50;82.90;;;;;;5082699;28;20071;-87
2021/09/26 05:42:47;;;;;;;0.70;0.70;;;14.50;82.90;;;;;;5082467;28;20035;-86
2021/09/26 05:45:13;;;;;;;1.40;0.50;;;14.50;82.90;;;;;;5067918;28;20023;-88
2021/09/26 05:47:39;;;;;;;0.80;0.70;;;14.50;82.90;;;;;;5060714;28;20024;-88
2021/09/26 05:50:06;;;;;;;1.92;0.57;;;14.50;82.90;;;;;;5095212;28;20028;-87
2021/09/26 05:52:32;;;;;;;1.00;0.70;;;14.50;82.90;;;;;;5048528;28;20031;-85
2021/09/26 05:54:58;;;;;;;0.60;0.60;;;14.50;82.80;;;;;;5081603;28;20031;-86
2021/09/26 05:57:24;;;;;;;0.70;0.70;;;14.50;82.80;;;;;;5073721;28;20041;-86
2021/09/26 05:59:52;;;;;;;0.60;0.60;;;14.50;82.90;;;;;;5082907;28;20035;-85
2021/09/26 06:02:24;;;;;;;1.98;0.70;;;14.50;82.80;;;;;;5107931;28;20036;-84
2021/09/26 06:04:51;;;;;;;0.82;0.68;;;14.50;82.80;;;;;;5117311;28;20091;-86
2021/09/26 06:07:17;;;;;;;1.08;0.57;;;14.50;82.90;;;;;;5091397;28;20031;-87
2021/09/26 06:09:43;;;;;;;0.65;0.63;;;14.50;83.00;;;;;;5049260;28;20023;-88
2021/09/26 06:12:12;;;;;;;1.90;0.70;;;14.50;83.00;;;;;;5060716;28;20495;-87
2021/09/26 06:14:40;;;;;;;1.42;0.73;;;14.50;83.00;;;;;;5075404;28;20036;-87
2021/09/26 06:17:06;;;;;;;3.30;0.77;;;14.50;82.90;;;;;;5067967;28;20532;-87
2021/09/26 06:19:33;;;;;;;0.68;0.60;;;14.50;82.90;;;;;;5091447;28;20060;-87
2021/09/26 06:21:59;;;;;;;0.93;0.55;;;14.50;82.90;;;;;;5066422;28;20412;-87
2021/09/26 06:24:26;;;;;;;1.02;0.82;;;14.60;82.90;;;;;;5094011;28;20049;-86
2021/09/26 06:26:52;;;;;;;1.60;0.55;;;14.60;82.70;;;;;;5094475;28;20044;-87
2021/09/26 06:29:18;;;;;;;1.10;0.47;;;14.60;82.60;;;;;;5068688;28;20390;-87
2021/09/26 06:31:48;;;;;;;0.75;0.50;;;14.60;82.50;;;;;;5082073;28;20966;-87
2021/09/26 06:34:14;;;;;;;1.85;0.65;;;14.60;82.50;;;;;;5081442;28;20024;-86
2021/09/26 06:36:42;;;;;;;0.65;0.40;;;14.50;82.40;;;;;;5078997;28;20119;-85
2021/09/26 06:39:08;;;;;;;0.50;0.50;;;14.60;82.50;;;;;;5098686;28;20032;-85
2021/09/26 06:41:34;;;;;;;0.65;0.45;;;14.60;82.40;;;;;;5069299;28;20112;-85
2021/09/26 06:44:03;;;;;;;0.85;0.50;;;14.60;82.40;;;;;;5062169;28;20060;-85
2021/09/26 06:46:30;;;;;;;1.08;0.45;;;14.60;82.20;;;;;;5099010;28;20032;-84
2021/09/26 06:48:56;;;;;;;0.35;0.30;;;14.60;82.30;;;;;;5060882;28;20036;-85
2021/09/26 06:51:22;;;;;;;1.08;0.57;;;14.60;82.40;;;;;;5081076;28;20031;-84
2021/09/26 06:53:48;;;;;;;1.33;0.63;;;14.60;82.30;;;;;;5078066;28;20035;-85
2021/09/26 06:56:13;;;;;;;0.38;0.30;;;14.60;82.30;;;;;;5064366;28;20036;-85
2021/09/26 06:58:39;;;;;;;0.60;0.38;;;14.60;82.20;;;;;;5086255;28;20058;-84
2021/09/26 07:01:06;;;;;;;2.05;0.52;;;14.60;82.20;;;;;;5097715;28;20036;-85
2021/09/26 07:03:32;;;;;;;2.10;0.50;;;14.60;82.30;;;;;;5069371;28;20031;-86
2021/09/26 07:05:58;;;;;;;1.13;0.40;;;14.60;82.20;;;;;;5073802;28;20032;-85
2021/09/26 07:08:24;;;;;;;0.40;0.40;;;14.70;82.20;;;;;;5072348;28;20534;-85
2021/09/26 07:10:50;;;;;;;0.73;0.50;;;14.70;82.10;;;;;;5082981;28;20114;-85
2021/09/26 07:13:16;;;;;;;1.75;0.75;;;14.70;82.00;;;;;;5062809;28;20114;-88
2021/09/26 07:15:42;;;;;;;0.50;0.47;;;14.70;81.90;;;;;;5086782;28;20052;-85
2021/09/26 07:18:08;;;;;;;0.90;0.65;;;14.70;81.80;;;;;;5110272;28;20067;-85
2021/09/26 07:20:34;;;;;;;2.15;0.70;;;14.80;81.80;;;;;;5096710;28;20471;-86
2021/09/26 07:23:01;;;;;;;1.05;0.80;;;14.80;81.30;;;;;;5099445;28;20032;-85
2021/09/26 07:25:28;;;;;;;1.05;0.63;;;14.80;80.80;;;;;;5108811;28;20033;-84
2021/09/26 07:27:55;;;;;;;1.52;0.65;;;14.80;80.50;;;;;;5106096;28;20036;-85
2021/09/26 07:30:21;;;;;;;1.65;0.90;;;14.80;80.30;;;;;;5085545;28;20528;-85
2021/09/26 07:32:47;;;;;;;3.42;1.20;;;14.80;80.40;;;;;;5088899;28;20035;-87
2021/09/26 07:35:14;;;;;;;2.30;0.90;;;14.80;80.50;;;;;;5055498;28;20033;-87
2021/09/26 07:37:40;;;;;;;1.75;0.82;;;14.90;80.90;;;;;;5098913;28;20413;-86
2021/09/26 07:40:07;;;;;;;1.45;1.10;;;14.90;81.10;;;;;;5113508;28;20122;-85
2021/09/26 07:42:33;;;;;;;1.33;0.98;;;14.90;81.50;;;;;;5071286;28;20447;-87
2021/09/26 07:45:03;;;;;;;1.02;1.02;;;14.90;81.50;;;;;;5096136;28;20042;-85
2021/09/26 07:47:30;;;;;;;1.17;1.17;;;14.90;81.40;;;;;;5105306;28;20028;-87
2021/09/26 07:49:56;;;;;;;1.05;1.05;;;14.90;81.10;;;;;;5076083;28;20020;-85
2021/09/26 07:52:23;;;;;;;1.48;1.00;;;14.90;80.90;;;;;;5105902;28;20488;-87
2021/09/26 07:54:50;;;;;;;2.45;1.17;;;14.90;81.00;;;;;;5094923;28;20037;-86
2021/09/26 07:57:19;;;;;;;2.00;1.10;;;14.90;81.20;;;;;;5079115;28;20445;-88
2021/09/26 07:59:46;;;;;;;1.52;0.95;;;14.90;81.10;;;;;;5083198;28;20028;-88
2021/09/26 08:02:12;;;;;;;2.33;0.73;;;14.90;81.40;;;;;;5066812;28;20046;-86
2021/09/26 08:04:38;;;;;;;2.17;1.00;;;14.90;81.70;;;;;;5093074;28;20031;-88
2021/09/26 08:07:04;;;;;;;1.38;0.80;;;15.00;81.90;;;;;;5086222;28;20028;-88
2021/09/26 08:09:30;;;;;;;1.77;1.02;;;15.00;82.00;;;;;;5062757;28;20587;-87
2021/09/26 08:11:56;;;;;;;1.45;1.25;;;15.00;81.60;;;;;;5081174;28;20119;-88
2021/09/26 08:14:22;;;;;;;1.52;1.08;;;15.00;81.40;;;;;;5080426;28;20032;-88
2021/09/26 08:16:48;;;;;;;2.70;1.17;;;15.00;81.60;;;;;;5084933;28;20059;-88
2021/09/26 08:19:14;;;;;;;2.17;1.02;;;15.00;81.60;;;;;;5083293;28;20441;-85
2021/09/26 08:21:40;;;;;;;1.83;0.95;;;15.10;81.80;;;;;;5086173;28;20034;-89
2021/09/26 08:24:07;;;;;;;1.35;0.98;;;15.00;81.80;;;;;;5096423;28;20487;-89
2021/09/26 08:26:35;;;;;;;3.17;1.30;;;15.10;81.90;;;;;;5092270;28;20456;-89
2021/09/26 08:29:02;;;;;;;3.45;1.17;;;15.10;82.10;;;;;;5098229;28;20019;-90
2021/09/26 08:31:28;;;;;;;1.80;1.15;;;15.10;82.10;;;;;;5094852;28;20254;-87
2021/09/26 08:33:54;;;;;;;1.63;1.38;;;15.10;82.00;;;;;;5080770;28;20162;-87
2021/09/26 08:36:20;;;;;;;2.15;1.30;;;15.10;81.90;;;;;;5093539;28;20166;-88
2021/09/26 08:38:46;;;;;;;1.63;1.30;;;15.10;81.80;;;;;;5088784;28;20036;-90
2021/09/26 08:41:12;;;;;;;5.63;1.85;;;15.10;81.80;;;;;;5058330;28;20524;-88
2021/09/26 08:43:40;;;;;;;1.70;1.33;;;15.10;81.80;;;;;;5091854;28;21021;-90
2021/09/26 08:46:07;;;;;;;1.38;1.27;;;15.10;81.80;;;;;;5082512;28;20062;-89
2021/09/26 08:48:33;;;;;;;2.38;1.10;;;15.10;81.90;;;;;;5058878;28;20031;-92
2021/09/26 08:50:59;;;;;;;1.70;1.33;;;15.10;82.00;;;;;;5098737;28;20035;-88
2021/09/26 08:53:25;;;;;;;1.55;1.45;;;15.10;81.90;;;;;;5122112;28;20047;-82
2021/09/26 08:55:55;;;;;;;7.20;1.70;;;15.10;81.70;;;;;;5092207;28;20036;-90
2021/09/26 08:58:22;;;;;;;5.70;1.67;;;15.10;81.80;;;;;;5089978;28;20035;-90
2021/09/26 09:00:48;;;;;;;1.48;1.15;;;15.10;82.20;;;;;;5069811;28;20032;-90
2021/09/26 09:03:14;;;;;;;2.38;1.40;;;15.10;82.20;;;;;;5070189;28;20069;-88
2021/09/26 09:05:42;;;;;;;2.35;1.27;;;15.10;82.10;;;;;;5072278;28;20031;-87
2021/09/26 09:08:13;;;;;;;1.58;1.00;;;15.10;82.10;;;;;;5089877;28;20444;-93
2021/09/26 09:10:43;;;;;;;1.75;1.10;;;15.20;82.20;;;;;;5093697;28;20525;-89
2021/09/26 09:13:11;;;;;;;1.17;1.10;;;15.10;82.20;;;;;;5085050;28;20035;-88
2021/09/26 09:15:49;;;;;;;1.92;1.10;;;15.20;82.10;;;;;;5107947;28;20425;-91
2021/09/26 09:18:15;;;;;;;2.15;0.80;;;15.20;82.20;;;;;;5113022;28;20028;-92
2021/09/26 09:20:41;;;;;;;1.42;0.88;;;15.20;82.10;;;;;;5079735;28;20038;-87
2021/09/26 09:23:14;;;;;;;1.98;1.00;;;15.20;82.00;;;;;;5082268;28;20119;-88
2021/09/26 09:25:53;;;;;;;2.20;1.27;;;15.20;82.00;;;;;;5081941;28;20415;-89
2021/09/26 09:28:22;;;;;;;1.00;0.90;;;15.20;82.00;;;;;;5066008;28;20039;-89
2021/09/26 09:30:50;;;;;;;1.73;1.30;;;15.20;82.10;;;;;;5070697;28;20101;-92
2021/09/26 09:33:17;;;;;;;1.88;1.40;;;15.20;82.80;;;;;;5084316;28;20028;-89
2021/09/26 09:35:48;;;;;;;4.47;1.70;;;15.20;82.60;;;;;;5066398;28;20027;-90
2021/09/26 09:38:29;;;;;;;2.08;1.40;;;;;;;;;;5073866;28;20028;-92
2021/09/26 09:40:57;;;;;;;5.32;2.42;;;15.30;82.90;;;;;;5089011;28;20048;-88
2021/09/26 09:43:23;;;;;;;4.50;2.42;;;15.30;83.80;;;;;;5063146;28;20560;-88
2021/09/26 09:45:54;;;;;;;3.03;2.03;;;15.30;84.30;;;;;;5058394;28;20020;-87
2021/09/26 09:48:25;;;;;;;3.78;2.33;;;15.40;84.30;;;;;;5087762;28;20044;-87
2021/09/26 09:50:53;;;;;;;4.30;2.00;;;15.40;84.20;;;;;;5086197;28;20043;-88
2021/09/26 09:53:22;;;;;;;5.95;2.42;;;15.40;84.10;;;;;;5082455;28;20577;-89
2021/09/26 09:56:04;;;;;;;4.55;2.30;;;15.50;84.30;;;;;;5085591;28;20039;-87
2021/09/26 09:58:48;;;;;;;5.25;2.90;;;15.50;84.20;;;;;;5089512;28;20040;-90
2021/09/26 10:01:35;;;;;;;5.60;2.47;;;15.50;84.30;;;;;;5085379;28;20040;-86
2021/09/26 10:04:07;;;;;;;4.03;2.08;;;15.50;84.40;;;;;;5085971;28;20036;-86
2021/09/26 10:06:40;;;;;;;4.00;2.40;;;15.60;84.20;;;;;;5088284;28;20453;-87
2021/09/26 10:09:17;;;;;;;7.43;2.30;;;15.50;83.70;;;;;;5086848;28;20139;-87
2021/09/26 10:11:51;;;;;;;4.70;2.00;;;15.50;83.50;;;;;;5060408;28;20421;-88
2021/09/26 10:14:18;;;;;;;7.53;2.25;;;15.50;83.30;;;;;;5093942;28;20032;-86
2021/09/26 10:16:46;;;;;;;4.70;1.60;;;15.60;83.20;;;;;;5092290;28;20051;-86
2021/09/26 10:19:12;;;;;;;3.47;2.30;;;15.60;83.70;;;;;;5059166;28;20028;-86
2021/09/26 10:21:39;;;;;;;3.22;1.80;;;15.60;82.90;;;;;;5094567;28;20029;-87
2021/09/26 10:24:06;;;;;;;2.95;1.70;;;15.60;82.60;;;;;;5082124;28;20758;-86
2021/09/26 10:26:33;;;;;;;3.97;2.22;;;15.60;82.30;;;;;;5097473;28;20043;-86
2021/09/26 10:29:00;;;;;;;4.80;2.10;;;15.60;82.50;;;;;;5084082;28;20032;-89
2021/09/26 10:31:28;;;;;;;3.95;2.20;;;15.60;82.70;;;;;;5076466;28;20032;-86
2021/09/26 10:34:00;;;;;;;4.90;2.70;;;15.60;82.60;;;;;;5069667;28;20059;-87
2021/09/26 10:36:27;;;;;;;4.35;2.35;;;15.60;83.00;;;;;;5098455;28;20532;-84
2021/09/26 10:38:54;;;;;;;5.68;2.20;;;15.70;83.20;;;;;;5095980;28;20118;-86
2021/09/26 10:41:21;;;;;;;5.07;2.45;;;15.70;83.40;;;;;;5095324;28;20294;-88
2021/09/26 10:43:47;;;;;;;7.80;4.90;;;15.70;83.40;;;;;;5071772;28;20043;-86
2021/09/26 10:46:17;;;;;;;12.40;6.57;;;15.70;83.70;;;;;;5079729;28;20059;-86
2021/09/26 10:49:07;;;;;;;11.90;5.53;;;15.70;84.00;;;;;;5082470;28;20023;-89
2021/09/26 10:51:50;;;;;;;18.65;9.55;;;15.70;84.20;;;;;;5078171;28;20051;-90
2021/09/26 10:54:23;;;;;;;17.27;8.32;;;15.80;85.30;;;;;;5093533;28;20074;-91
2021/09/26 10:57:03;;;;;;;14.15;7.45;;;15.80;85.40;;;;;;5099532;28;20036;-91
2021/09/26 10:59:37;;;;;;;11.07;6.20;;;15.80;85.40;;;;;;5080950;28;20039;-88
2021/09/26 11:02:27;;;;;;;10.23;5.80;;;15.80;85.50;;;;;;5069675;28;20038;-88
2021/09/26 11:04:55;;;;;;;10.52;5.68;;;15.90;85.40;;;;;;5082736;28;20086;-88
2021/09/26 11:07:29;;;;;;;11.77;5.80;;;15.80;85.50;;;;;;5057856;28;20563;-86
2021/09/26 11:10:06;;;;;;;13.70;7.68;;;15.80;85.50;;;;;;5093209;28;20093;-86
2021/09/26 11:12:44;;;;;;;14.38;7.15;;;15.90;85.70;;;;;;5071023;28;20391;-86
2021/09/26 11:15:15;;;;;;;7.82;5.13;;;15.90;86.30;;;;;;5083678;28;20139;-85
2021/09/26 11:17:56;;;;;;;8.18;5.10;;;15.90;86.20;;;;;;5065707;28;20064;-85
2021/09/26 11:20:25;;;;;;;7.05;4.88;;;16.00;86.00;;;;;;5075974;28;20027;-86
2021/09/26 11:23:07;;;;;;;9.50;4.25;;;16.00;85.80;;;;;;5075918;28;20441;-86
2021/09/26 11:25:55;;;;;;;4.43;3.15;;;16.00;85.60;;;;;;5069532;28;20114;-86
2021/09/26 11:28:32;;;;;;;6.47;3.20;;;16.00;85.10;;;;;;5094850;28;20084;-86
2021/09/26 11:30:58;;;;;;;3.33;2.55;;;16.00;84.60;;;;;;5066624;28;20036;-86
2021/09/26 11:33:24;;;;;;;3.40;2.40;;;16.00;84.30;;;;;;5094280;28;20410;-86
2021/09/26 11:35:50;;;;;;;2.67;1.80;;;16.00;83.70;;;;;;5090022;28;20032;-86
2021/09/26 11:38:23;;;;;;;3.22;1.98;;;16.00;83.30;;;;;;5076966;28;20081;-86
2021/09/26 11:40:55;;;;;;;2.53;1.80;;;16.00;83.20;;;;;;5069875;28;20737;-85
2021/09/26 11:43:25;;;;;;;2.92;2.22;;;16.00;83.30;;;;;;5086236;28;20063;-85
2021/09/26 11:45:52;;;;;;;6.50;2.20;;;16.00;83.50;;;;;;5099141;28;20093;-85
2021/09/26 11:48:18;;;;;;;2.10;1.90;;;16.00;83.70;;;;;;5079022;28;20024;-85
2021/09/26 11:50:46;;;;;;;2.47;1.92;;;16.00;83.40;;;;;;5095064;28;20032;-86
2021/09/26 11:53:14;;;;;;;2.25;1.67;;;16.00;83.40;;;;;;5070044;28;20495;-86
2021/09/26 11:55:43;;;;;;;1.90;1.60;;;16.00;83.30;;;;;;5098486;28;20388;-84
2021/09/26 11:58:10;;;;;;;3.53;1.98;;;16.10;83.80;;;;;;5079014;28;20031;-86
2021/09/26 12:00:38;;;;;;;2.30;1.50;;;16.10;83.10;;;;;;5067938;28;20054;-86
2021/09/26 12:03:33;;;;;;;1.83;1.30;;;16.10;83.10;;;;;;5079139;28;20031;-86
2021/09/26 12:06:01;;;;;;;1.10;1.00;;;16.10;83.20;;;;;;5077474;28;20040;-86
2021/09/26 12:08:41;;;;;;;1.70;1.33;;;16.10;83.00;;;;;;5097045;28;20613;-86
2021/09/26 12:11:09;;;;;;;1.77;1.05;;;16.10;82.90;;;;;;5095036;28;20070;-86
2021/09/26 12:13:47;;;;;;;1.50;1.23;;;16.10;82.80;;;;;;5096843;28;20054;-86
2021/09/26 12:16:14;;;;;;;0.98;0.98;;;16.10;82.50;;;;;;5098013;28;20082;-87
2021/09/26 12:18:40;;;;;;;1.17;1.00;;;16.10;82.20;;;;;;5094810;28;20092;-86
2021/09/26 12:21:09;;;;;;;1.45;1.20;;;16.10;81.90;;;;;;5096264;28;20032;-85
2021/09/26 12:23:44;;;;;;;1.65;1.30;;;16.10;82.00;;;;;;5079318;28;20035;-85
2021/09/26 12:26:10;;;;;;;2.60;1.02;;;16.10;82.20;;;;;;5072140;28;20032;-85
2021/09/26 12:28:37;;;;;;;1.98;1.00;;;16.10;82.00;;;;;;5096351;28;20410;-85
2021/09/26 12:31:03;;;;;;;0.90;0.90;;;16.10;81.70;;;;;;5066393;28;20038;-87
2021/09/26 12:33:34;;;;;;;1.58;1.08;;;16.10;81.80;;;;;;5096316;28;20028;-86
2021/09/26 12:36:06;;;;;;;1.95;1.10;;;16.10;81.80;;;;;;5097641;28;20039;-85
2021/09/26 12:38:46;;;;;;;2.28;0.90;;;16.10;81.50;;;;;;5074691;28;20042;-85
2021/09/26 12:41:34;;;;;;;1.80;0.80;;;16.10;81.30;;;;;;5078503;28;20173;-85
2021/09/26 12:44:08;;;;;;;0.90;0.90;;;16.10;81.20;;;;;;5096187;28;20646;-85
2021/09/26 12:46:39;;;;;;;0.80;0.80;;;16.10;81.20;;;;;;5066988;28;20039;-85
2021/09/26 12:49:10;;;;;;;1.10;1.00;;;16.10;81.10;;;;;;5078298;28;20054;-87
2021/09/26 12:51:42;;;;;;;1.48;1.00;;;16.10;81.10;;;;;;5047152;28;20166;-86
2021/09/26 12:54:09;;;;;;;1.00;0.90;;;16.10;81.00;;;;;;5094773;28;20027;-86
2021/09/26 12:56:42;;;;;;;1.85;0.95;;;16.10;80.90;;;;;;5066249;28;20047;-85